الصفحة الرئيسية
METAR-TAF:

METAR-TAF

مطار :

أيدين, تركيا

دائرة عرض: 37-48-54N, خط طول: 27-53-21E, ارتفاع: 31 متر

مراقبة الطقس الحالي

تاريخ ووقت الإصدار 12ساعات و 13 دقيقة قبل الساعة 13:50UTC
ريح 9 عقدة من الشرق
درجة الحرارة 12°درجة مئوية
الرطوبة 35%
ضغط 1024 hPa
الرؤية 10 كم أو أكثر
الغيوم لا تقل 1500 م ولا وجود لمزنة ركامية السحاب الأسود

METAR: LTBD 221350Z 10009KT CAVOK 12/M03 Q1024

زمن: 05:03 (02:03 UTC)

توقعات

تاريخ ووقت الإصدار 12ساعات و 23 دقيقة قبل الساعة 13:40UTC
التوقعات صالحة من22 الساعة 15 UTC إلى 22 الساعة 24 UTC
ريح 2 عقدةمن اتجاهات متغيرة
الرؤية 10 كم أو أكثر
الغيوم لا تقل 1500 م ولا وجود لمزنة ركامية السحاب الأسود

TAF: LTBD 221340Z 2215/2224 VRB02KT CAVOK

أرصاد الطقس والتوقعات من أكثر من 4000 مطار (تقارير الطقس للمطار METAR والتنبؤ بالطقس بالمطارTAF).

المحطات المتاحة هي النقط الصفراء والحمراء على الخريطة.

حرك المؤشر فوق النقطة لمعرفة اسم المحطة.

ثم انقر لمعرفة أرصاد وتوقعات الطقس.

لتغيير الخارطة: اضغط على الأزرار الخضراء مع رمز الصليب الأسود للتكبير. على الزر الأخضر مع شرطة للتصغير، أو على الأسهم الخضراء للخرائط المجاورة.


METAR-TAF: